createdAt,value
2018-10-09T00:00:50.563Z,19.32
2018-10-09T00:15:51.699Z,26.25
2018-10-09T00:30:50.621Z,20.88
2018-10-09T00:45:50.563Z,21.20
2018-10-09T01:00:50.736Z,18.95
2018-10-09T01:15:51.069Z,20.35
2018-10-09T01:30:59.520Z,19.80
2018-10-09T01:45:51.705Z,18.77
2018-10-09T02:00:50.975Z,21.68
2018-10-09T02:15:51.767Z,22.48
2018-10-09T02:30:51.042Z,19.98
2018-10-09T02:45:49.797Z,21.85
2018-10-09T03:00:51.250Z,17.95
2018-10-09T03:15:51.048Z,17.77
2018-10-09T03:30:50.476Z,18.67
2018-10-09T03:45:50.425Z,18.60
2018-10-09T04:00:50.624Z,26.50
2018-10-09T04:15:51.068Z,28.60
2018-10-09T04:30:51.234Z,32.60
2018-10-09T04:45:51.154Z,28.42
2018-10-09T05:00:50.974Z,29.85
2018-10-09T05:15:50.866Z,32.10
2018-10-09T05:30:51.738Z,33.48
2018-10-09T05:45:50.704Z,36.48
2018-10-09T06:00:51.183Z,32.35
2018-10-09T06:15:50.658Z,29.95
2018-10-09T06:30:50.609Z,32.67
2018-10-09T06:45:52.425Z,18.62
2018-10-09T07:00:52.507Z,12.30
2018-10-09T07:15:50.402Z,13.28
2018-10-09T07:30:50.864Z,13.43
2018-10-09T07:45:50.857Z,12.47
2018-10-09T08:00:56.728Z,10.78
2018-10-09T08:15:50.710Z,8.30
2018-10-09T08:30:51.040Z,6.15
2018-10-09T08:45:51.055Z,7.53
2018-10-09T09:00:53.078Z,6.97
2018-10-09T09:15:50.990Z,6.90
2018-10-09T09:30:50.346Z,5.58
2018-10-09T09:45:49.900Z,6.10
2018-10-09T10:00:57.582Z,5.92
2018-10-09T10:15:51.386Z,6.10
2018-10-09T10:30:50.642Z,6.53
2018-10-09T10:45:50.572Z,5.42
2018-10-09T11:00:50.581Z,7.75
2018-10-09T11:15:53.498Z,5.83
2018-10-09T11:30:51.003Z,7.15
2018-10-09T11:45:59.258Z,6.72
2018-10-09T12:00:52.580Z,4.70
2018-10-09T12:15:50.866Z,12.00
2018-10-09T12:30:51.492Z,6.25
2018-10-09T12:45:51.334Z,3.95
2018-10-09T13:00:51.251Z,5.62
2018-10-09T13:15:51.086Z,4.95
2018-10-09T13:30:50.554Z,5.05
2018-10-09T13:45:50.397Z,6.58
2018-10-09T14:00:50.495Z,4.85
2018-10-09T14:15:53.290Z,6.08
2018-10-09T14:30:48.937Z,4.17
2018-10-09T14:45:50.568Z,3.87
2018-10-09T15:00:50.683Z,5.37
2018-10-09T15:15:50.462Z,3.95
2018-10-09T15:30:51.088Z,5.75
2018-10-09T15:45:51.661Z,5.47
2018-10-09T16:00:52.529Z,5.75
2018-10-09T16:15:49.738Z,13.62
2018-10-09T16:30:48.983Z,10.90
2018-10-09T16:45:48.931Z,7.75
2018-10-09T17:00:50.138Z,12.58
2018-10-09T17:15:50.083Z,9.90
2018-10-09T17:30:50.488Z,13.00
2018-10-09T17:45:50.335Z,16.73
2018-10-09T18:00:50.571Z,40.15
2018-10-09T18:15:49.858Z,20.97
2018-10-09T18:30:50.679Z,14.33
2018-10-09T18:45:50.699Z,18.52
2018-10-09T19:00:50.851Z,17.75
2018-10-09T19:15:50.660Z,19.67
2018-10-09T19:30:50.263Z,15.90
2018-10-09T19:45:51.053Z,14.60
2018-10-09T20:00:51.326Z,13.40
2018-10-09T20:15:51.428Z,11.73
2018-10-09T20:30:49.919Z,15.48
2018-10-09T20:45:50.686Z,12.03
2018-10-09T21:00:50.384Z,13.45
2018-10-09T21:15:50.139Z,14.10
2018-10-09T21:30:50.513Z,12.30
2018-10-09T21:45:50.500Z,16.27
2018-10-09T22:00:57.745Z,11.65
2018-10-09T22:15:50.446Z,15.20
2018-10-09T22:30:50.813Z,12.30
2018-10-09T22:45:50.774Z,14.95
2018-10-09T23:00:51.421Z,25.00
2018-10-09T23:15:50.724Z,18.35
2018-10-09T23:30:51.088Z,16.20
2018-10-09T23:45:50.962Z,16.40
